Accueil
METAR-TAF:

METAR-TAF

Aéroports :

Aéroport de Lugano

Lugano, Suisse

latitude: 46-00N, longitude: 008-58E, altitude: 273 m

Observation

Le bulletin a été fait il y a 26 minutes, à 20:20 UTC
Vent 1 kt de direction variable
Température 14°C
Humidité 94%
Pression 1021 hPa
Visibilité: 9000 m

METAR: LSZA 192020Z AUTO VRB01KT 9000 NCD 14/13 Q1021

Heure: 22:46 (20:46 UTC)

Prévision

Le bulletin a été fait il y a 6 heures et 21 minutes, à 14:25 UTC
Prévision valable du 19 à 15 UTC au 19 à 24 UTC
Vent 6 kt de sud/sud-ouest
Visibilité 10 km ou plus
Quelques nuages à une hauteur de 6000 ft
Nuages fragmentés à une hauteur de 18000 ft
Temporairement
du 19 à 16 UTC au 19 à 20 UTC
Visibilité 10 km ou plus
pas de nuages en-dessous de 1500 mètres et pas de cumulonimbus.
Probabilité 40%
du 19 à 20 UTC au 19 à 24 UTC
Visibilité: 3000 m
brume

TAF: LSZA 191425Z 1915/1924 20006KT 9999 FEW060 BKN180 TEMPO 1916/1920 CAVOK PROB40 1920/1924 3000 BR NSC

Observations et prévisions météorologiques de plus de 4000 aéroports (messages METAR et TAF).

Les stations disponibles sont représentées par des disques jaunes et rouges sur la carte.

Passer la souris dessus pour voir le nom de la station.

Cliquer dessus pour voir les observations et prévisions météorologiques.

Pour changer de carte: cliquez sur les boutons verts avec une croix noire pour zoomer, sur le bouton vert avec un tiret pour effectuer un zoom arrière, ou sur les flèches vertes pour les cartes adjacentes.


METAR-TAF: